Pikesville, MD (21208)

08:40 EDT le 30 juin 2015 (GMT -0400)
Pikesville | | Change Station
CLOSE
Current Station
Stations météorologiques personnelles
Location: Pikesville, MD
Altitude: 463 ft
Stations météo à proximité

Alt. 463 ft 39.36 °N, 76.72 °W | Updated 52 seconds ago

Nuageux
Nuageux
75.9 ° F
Paraît 76 ° F
N
0.7
Vent Variable Vent de Ouest
Gusts 2.2 mph

Aujourd'hui
Haut(e) -- | Bas -- ° F
--% Risque de précip.
Hier
Haut(e) -- | Bas -- ° F
Precip. -- pouce
5:43 AM 8:37 PM
Lune gibbeuse croissante, 97% visible
Pression 29.91 pouce
Visibilité 10.0 Miles terrestres
Nuages Nuages épars 1300 ft
Nuages épars 8000 ft
Nuageux 14000 ft
indice de chaleur 76 ° F
Point de rosée 72 ° F
Humidité 88%
Précipitations pouce
Profondeur de la couche neigeuse Non disponible.
UV 1 sur 12
Pollen 4.30 sur 12
Qualité de l'air Non disponible.
Flu Activity Sporadic
METAR KBWI 301154Z 18007KT 10SM SCT013 SCT080 BKN140 24/21 A2991 RMK AO2 SLP128 T02390206 10239 20172 50005

More Conditions Fewer Conditions

Pression 29.91 pouce
Visibilité 10.0 Miles terrestres
Nuages Nuages épars 1300 ft
Nuages épars 8000 ft
Nuageux 14000 ft
indice de chaleur 76 ° F
Point de rosée 72 ° F
Humidité 88%
Précipitations pouce
Profondeur de la couche neigeuse Non disponible.
UV 1 sur 12
Pollen 4.30 sur 12
Qualité de l'air Non disponible.
Flu Activity Sporadic
METAR KBWI 301154Z 18007KT 10SM SCT013 SCT080 BKN140 24/21 A2991 RMK AO2 SLP128 T02390206 10239 20172 50005

More Conditions Fewer Conditions

10-Day Weather Forecast

×

Almanac

Astronomie

Jun. 30, 2015 Lever Coucher
Temps réel
Crépuscule civil
Crépuscule nautique
Crépuscule astronomique
Lune
Durée de lumière visible
Longueur du jour
Tomorrow will be .
, % of the Moon is Illuminated

Extrêmes aujourd'hui

State Highs State Lows

Community

WunderPhotos

Upload Photos

1,833,986 Photos téléchargées !

WunderBlogs® & News

Nearby

Qualité de l'air

  Qualité de l'air Indice de la qualité de l'air Polluant
Not available.

Épaisseur de neige

Station Depth Altitude

Activité sismique

Ville Distance Mag. Time & Date
Minimum magnitude displayed is 2.5.

Températures des eaux côtières

Lieu Température

Stations

Stations météo à proximité

Emplacement de la station Température Refroidissement éolien Point de rosée Humidité Vent Precip. Alt. Mise à jour Type